sensor_id;sensor_type;location;lat;lon;timestamp;temperature;humidity
40059;SHT31;25763;49.972;8.568;2023-11-21T00:02:11;9.79;87.72
40059;SHT31;25763;49.972;8.568;2023-11-21T00:04:36;9.79;87.75
40059;SHT31;25763;49.972;8.568;2023-11-21T00:07:03;9.78;88.03
40059;SHT31;25763;49.972;8.568;2023-11-21T00:09:28;9.79;87.81
40059;SHT31;25763;49.972;8.568;2023-11-21T00:11:53;9.79;87.95
40059;SHT31;25763;49.972;8.568;2023-11-21T00:14:19;9.79;87.92
40059;SHT31;25763;49.972;8.568;2023-11-21T00:16:44;9.78;87.88
40059;SHT31;25763;49.972;8.568;2023-11-21T00:19:11;9.78;87.92
40059;SHT31;25763;49.972;8.568;2023-11-21T00:21:36;9.74;88.16
40059;SHT31;25763;49.972;8.568;2023-11-21T00:24:01;9.77;88.18
40059;SHT31;25763;49.972;8.568;2023-11-21T00:26:27;9.69;88.24
40059;SHT31;25763;49.972;8.568;2023-11-21T00:28:53;9.74;88.33
40059;SHT31;25763;49.972;8.568;2023-11-21T00:31:18;9.74;88.33
40059;SHT31;25763;49.972;8.568;2023-11-21T00:33:43;9.72;88.25
40059;SHT31;25763;49.972;8.568;2023-11-21T00:36:09;9.67;88.33
40059;SHT31;25763;49.972;8.568;2023-11-21T00:38:38;9.71;88.31
40059;SHT31;25763;49.972;8.568;2023-11-21T00:41:06;9.77;88.37
40059;SHT31;25763;49.972;8.568;2023-11-21T00:43:31;9.67;88.69
40059;SHT31;25763;49.972;8.568;2023-11-21T00:45:58;9.69;88.67
40059;SHT31;25763;49.972;8.568;2023-11-21T00:48:23;9.69;88.69
40059;SHT31;25763;49.972;8.568;2023-11-21T00:50:48;9.64;88.87
40059;SHT31;25763;49.972;8.568;2023-11-21T00:53:15;9.69;88.67
40059;SHT31;25763;49.972;8.568;2023-11-21T00:55:40;9.67;88.69
40059;SHT31;25763;49.972;8.568;2023-11-21T00:58:06;9.64;88.84
40059;SHT31;25763;49.972;8.568;2023-11-21T01:00:33;9.67;88.76
40059;SHT31;25763;49.972;8.568;2023-11-21T01:02:59;9.65;88.83
40059;SHT31;25763;49.972;8.568;2023-11-21T01:05:24;9.64;88.78
40059;SHT31;25763;49.972;8.568;2023-11-21T01:07:49;9.71;88.73
40059;SHT31;25763;49.972;8.568;2023-11-21T01:10:15;9.71;88.63
40059;SHT31;25763;49.972;8.568;2023-11-21T01:12:42;9.75;88.56
40059;SHT31;25763;49.972;8.568;2023-11-21T01:15:08;9.68;88.80
40059;SHT31;25763;49.972;8.568;2023-11-21T01:17:34;9.71;88.83
40059;SHT31;25763;49.972;8.568;2023-11-21T01:20:00;9.74;88.67
40059;SHT31;25763;49.972;8.568;2023-11-21T01:22:26;9.71;88.72
40059;SHT31;25763;49.972;8.568;2023-11-21T01:24:54;9.71;88.63
40059;SHT31;25763;49.972;8.568;2023-11-21T01:27:20;9.72;88.62
40059;SHT31;25763;49.972;8.568;2023-11-21T01:29:45;9.67;88.59
40059;SHT31;25763;49.972;8.568;2023-11-21T01:32:11;9.68;88.67
40059;SHT31;25763;49.972;8.568;2023-11-21T01:34:36;9.62;88.81
40059;SHT31;25763;49.972;8.568;2023-11-21T01:37:02;9.59;89.00
40059;SHT31;25763;49.972;8.568;2023-11-21T01:39:29;9.55;89.18
40059;SHT31;25763;49.972;8.568;2023-11-21T01:41:55;9.55;89.29
40059;SHT31;25763;49.972;8.568;2023-11-21T01:44:20;9.50;89.36
40059;SHT31;25763;49.972;8.568;2023-11-21T01:46:46;9.54;89.61
40059;SHT31;25763;49.972;8.568;2023-11-21T01:49:12;9.58;89.52
40059;SHT31;25763;49.972;8.568;2023-11-21T01:51:41;9.61;89.45
40059;SHT31;25763;49.972;8.568;2023-11-21T01:54:09;9.59;89.56
40059;SHT31;25763;49.972;8.568;2023-11-21T01:56:34;9.67;89.36
40059;SHT31;25763;49.972;8.568;2023-11-21T01:59:00;9.68;89.27
40059;SHT31;25763;49.972;8.568;2023-11-21T02:01:25;9.59;89.24
40059;SHT31;25763;49.972;8.568;2023-11-21T02:03:51;9.67;89.20
40059;SHT31;25763;49.972;8.568;2023-11-21T02:06:17;9.67;89.20
40059;SHT31;25763;49.972;8.568;2023-11-21T02:08:43;9.71;89.07
40059;SHT31;25763;49.972;8.568;2023-11-21T02:11:10;9.77;89.10
40059;SHT31;25763;49.972;8.568;2023-11-21T02:13:38;9.68;89.16
40059;SHT31;25763;49.972;8.568;2023-11-21T02:16:04;9.69;89.16
40059;SHT31;25763;49.972;8.568;2023-11-21T02:18:31;9.68;89.10
40059;SHT31;25763;49.972;8.568;2023-11-21T02:20:56;9.68;89.18
40059;SHT31;25763;49.972;8.568;2023-11-21T02:23:22;9.77;89.19
40059;SHT31;25763;49.972;8.568;2023-11-21T02:25:48;9.83;89.06
40059;SHT31;25763;49.972;8.568;2023-11-21T02:28:13;9.86;88.90
40059;SHT31;25763;49.972;8.568;2023-11-21T02:30:40;9.85;88.88
40059;SHT31;25763;49.972;8.568;2023-11-21T02:33:06;9.89;88.88
40059;SHT31;25763;49.972;8.568;2023-11-21T02:35:32;9.88;88.78
40059;SHT31;25763;49.972;8.568;2023-11-21T02:37:57;9.89;88.79
40059;SHT31;25763;49.972;8.568;2023-11-21T02:40:23;9.93;88.67
40059;SHT31;25763;49.972;8.568;2023-11-21T02:42:51;9.95;88.53
40059;SHT31;25763;49.972;8.568;2023-11-21T02:45:17;9.98;88.43
40059;SHT31;25763;49.972;8.568;2023-11-21T02:47:44;9.99;88.35
40059;SHT31;25763;49.972;8.568;2023-11-21T02:50:09;9.95;88.33
40059;SHT31;25763;49.972;8.568;2023-11-21T02:52:35;9.99;88.25
40059;SHT31;25763;49.972;8.568;2023-11-21T02:55:02;9.98;88.24
40059;SHT31;25763;49.972;8.568;2023-11-21T02:57:27;9.98;88.24
40059;SHT31;25763;49.972;8.568;2023-11-21T02:59:52;10.03;88.26
40059;SHT31;25763;49.972;8.568;2023-11-21T03:02:18;10.02;88.20
40059;SHT31;25763;49.972;8.568;2023-11-21T03:04:43;10.02;88.14
40059;SHT31;25763;49.972;8.568;2023-11-21T03:07:09;10.02;88.17
40059;SHT31;25763;49.972;8.568;2023-11-21T03:09:35;10.05;88.13
40059;SHT31;25763;49.972;8.568;2023-11-21T03:12:01;10.09;88.03
40059;SHT31;25763;49.972;8.568;2023-11-21T03:14:27;10.09;87.98
40059;SHT31;25763;49.972;8.568;2023-11-21T03:16:52;10.10;87.95
40059;SHT31;25763;49.972;8.568;2023-11-21T03:19:17;9.96;88.34
40059;SHT31;25763;49.972;8.568;2023-11-21T03:21:43;10.06;88.34
40059;SHT31;25763;49.972;8.568;2023-11-21T03:24:08;10.06;88.20
40059;SHT31;25763;49.972;8.568;2023-11-21T03:26:34;9.98;88.49
40059;SHT31;25763;49.972;8.568;2023-11-21T03:28:59;9.98;88.73
40059;SHT31;25763;49.972;8.568;2023-11-21T03:31:24;9.96;88.87
40059;SHT31;25763;49.972;8.568;2023-11-21T03:33:50;9.85;89.07
40059;SHT31;25763;49.972;8.568;2023-11-21T03:36:15;9.79;89.35
40059;SHT31;25763;49.972;8.568;2023-11-21T03:38:41;9.74;89.68
40059;SHT31;25763;49.972;8.568;2023-11-21T03:41:07;9.72;89.85
40059;SHT31;25763;49.972;8.568;2023-11-21T03:43:36;9.75;89.83
40059;SHT31;25763;49.972;8.568;2023-11-21T03:46:01;9.75;89.88
40059;SHT31;25763;49.972;8.568;2023-11-21T03:48:27;9.82;89.86
40059;SHT31;25763;49.972;8.568;2023-11-21T03:50:52;9.88;89.66
40059;SHT31;25763;49.972;8.568;2023-11-21T03:53:17;9.93;89.58
40059;SHT31;25763;49.972;8.568;2023-11-21T03:55:42;9.81;89.75
40059;SHT31;25763;49.972;8.568;2023-11-21T03:58:08;9.78;89.93
40059;SHT31;25763;49.972;8.568;2023-11-21T04:00:33;9.77;89.95
40059;SHT31;25763;49.972;8.568;2023-11-21T04:02:58;9.74;90.04
40059;SHT31;25763;49.972;8.568;2023-11-21T04:05:24;9.69;90.13
40059;SHT31;25763;49.972;8.568;2023-11-21T04:07:56;9.67;90.38
40059;SHT31;25763;49.972;8.568;2023-11-21T04:10:22;9.68;90.49
40059;SHT31;25763;49.972;8.568;2023-11-21T04:12:47;9.61;90.70
40059;SHT31;25763;49.972;8.568;2023-11-21T04:15:13;9.62;90.78
40059;SHT31;25763;49.972;8.568;2023-11-21T04:17:40;9.69;90.70
40059;SHT31;25763;49.972;8.568;2023-11-21T04:20:06;9.67;90.66
40059;SHT31;25763;49.972;8.568;2023-11-21T04:22:41;9.64;90.74
40059;SHT31;25763;49.972;8.568;2023-11-21T04:25:09;9.78;90.65
40059;SHT31;25763;49.972;8.568;2023-11-21T04:27:36;9.67;90.59
40059;SHT31;25763;49.972;8.568;2023-11-21T04:30:01;9.65;90.85
40059;SHT31;25763;49.972;8.568;2023-11-21T04:32:27;9.69;90.79
40059;SHT31;25763;49.972;8.568;2023-11-21T04:34:52;9.62;90.80
40059;SHT31;25763;49.972;8.568;2023-11-21T04:37:18;9.68;90.75
40059;SHT31;25763;49.972;8.568;2023-11-21T04:39:43;9.64;90.69
40059;SHT31;25763;49.972;8.568;2023-11-21T04:42:08;9.78;90.62
40059;SHT31;25763;49.972;8.568;2023-11-21T04:44:33;9.69;90.50
40059;SHT31;25763;49.972;8.568;2023-11-21T04:46:59;9.75;90.49
40059;SHT31;25763;49.972;8.568;2023-11-21T04:49:24;9.85;90.38
40059;SHT31;25763;49.972;8.568;2023-11-21T04:51:49;9.88;90.26
40059;SHT31;25763;49.972;8.568;2023-11-21T04:54:15;9.79;90.13
40059;SHT31;25763;49.972;8.568;2023-11-21T04:56:40;9.69;90.21
40059;SHT31;25763;49.972;8.568;2023-11-21T04:59:05;9.69;90.38
40059;SHT31;25763;49.972;8.568;2023-11-21T05:01:31;9.71;90.29
40059;SHT31;25763;49.972;8.568;2023-11-21T05:03:56;9.72;90.23
40059;SHT31;25763;49.972;8.568;2023-11-21T05:06:22;9.72;90.18
40059;SHT31;25763;49.972;8.568;2023-11-21T05:08:49;9.62;90.18
40059;SHT31;25763;49.972;8.568;2023-11-21T05:11:24;9.51;90.18
40059;SHT31;25763;49.972;8.568;2023-11-21T05:13:49;9.59;90.31
40059;SHT31;25763;49.972;8.568;2023-11-21T05:16:15;9.50;90.35
40059;SHT31;25763;49.972;8.568;2023-11-21T05:18:40;9.48;90.26
40059;SHT31;25763;49.972;8.568;2023-11-21T05:21:06;9.52;90.29
40059;SHT31;25763;49.972;8.568;2023-11-21T05:23:32;9.43;90.33
40059;SHT31;25763;49.972;8.568;2023-11-21T05:25:59;9.41;90.42
40059;SHT31;25763;49.972;8.568;2023-11-21T05:28:24;9.34;90.56
40059;SHT31;25763;49.972;8.568;2023-11-21T05:30:50;9.47;90.68
40059;SHT31;25763;49.972;8.568;2023-11-21T05:33:16;9.58;90.56
40059;SHT31;25763;49.972;8.568;2023-11-21T05:35:41;9.51;90.38
40059;SHT31;25763;49.972;8.568;2023-11-21T05:38:06;9.41;90.44
40059;SHT31;25763;49.972;8.568;2023-11-21T05:40:32;9.40;90.56
40059;SHT31;25763;49.972;8.568;2023-11-21T05:42:58;9.32;90.60
40059;SHT31;25763;49.972;8.568;2023-11-21T05:45:24;9.43;90.70
40059;SHT31;25763;49.972;8.568;2023-11-21T05:47:49;9.52;90.65
40059;SHT31;25763;49.972;8.568;2023-11-21T05:50:16;9.57;90.52
40059;SHT31;25763;49.972;8.568;2023-11-21T05:52:44;9.67;90.37
40059;SHT31;25763;49.972;8.568;2023-11-21T05:55:10;9.52;90.40
40059;SHT31;25763;49.972;8.568;2023-11-21T05:57:36;9.51;90.45
40059;SHT31;25763;49.972;8.568;2023-11-21T06:00:04;9.54;90.37
40059;SHT31;25763;49.972;8.568;2023-11-21T06:02:37;9.65;90.26
40059;SHT31;25763;49.972;8.568;2023-11-21T06:05:02;9.72;90.12
40059;SHT31;25763;49.972;8.568;2023-11-21T06:07:29;9.75;90.00
40059;SHT31;25763;49.972;8.568;2023-11-21T06:09:54;9.72;89.91
40059;SHT31;25763;49.972;8.568;2023-11-21T06:12:20;9.74;89.89
40059;SHT31;25763;49.972;8.568;2023-11-21T06:14:45;9.74;89.74
40059;SHT31;25763;49.972;8.568;2023-11-21T06:17:11;9.79;89.61
40059;SHT31;25763;49.972;8.568;2023-11-21T06:19:36;9.83;89.53
40059;SHT31;25763;49.972;8.568;2023-11-21T06:22:02;9.62;89.64
40059;SHT31;25763;49.972;8.568;2023-11-21T06:24:27;9.67;89.62
40059;SHT31;25763;49.972;8.568;2023-11-21T06:26:53;9.65;89.56
40059;SHT31;25763;49.972;8.568;2023-11-21T06:29:18;9.54;89.81
40059;SHT31;25763;49.972;8.568;2023-11-21T06:31:43;9.68;89.75
40059;SHT31;25763;49.972;8.568;2023-11-21T06:34:09;9.58;89.82
40059;SHT31;25763;49.972;8.568;2023-11-21T06:36:35;9.64;89.74
40059;SHT31;25763;49.972;8.568;2023-11-21T06:39:01;9.74;89.82
40059;SHT31;25763;49.972;8.568;2023-11-21T06:41:27;9.81;89.70
40059;SHT31;25763;49.972;8.568;2023-11-21T06:43:52;9.81;89.67
40059;SHT31;25763;49.972;8.568;2023-11-21T06:46:18;9.71;89.61
40059;SHT31;25763;49.972;8.568;2023-11-21T06:48:45;9.71;89.64
40059;SHT31;25763;49.972;8.568;2023-11-21T06:51:10;9.77;89.46
40059;SHT31;25763;49.972;8.568;2023-11-21T06:53:36;9.65;89.57
40059;SHT31;25763;49.972;8.568;2023-11-21T06:56:02;9.59;89.84
40059;SHT31;25763;49.972;8.568;2023-11-21T06:58:28;9.59;89.97
40059;SHT31;25763;49.972;8.568;2023-11-21T07:00:54;9.55;90.15
40059;SHT31;25763;49.972;8.568;2023-11-21T07:03:19;9.65;90.12
40059;SHT31;25763;49.972;8.568;2023-11-21T07:05:45;9.68;90.19
40059;SHT31;25763;49.972;8.568;2023-11-21T07:08:11;9.72;90.08
40059;SHT31;25763;49.972;8.568;2023-11-21T07:10:37;9.82;89.93
40059;SHT31;25763;49.972;8.568;2023-11-21T07:13:03;9.88;89.78
40059;SHT31;25763;49.972;8.568;2023-11-21T07:15:28;9.86;89.78
40059;SHT31;25763;49.972;8.568;2023-11-21T07:17:54;9.92;89.61
40059;SHT31;25763;49.972;8.568;2023-11-21T07:20:19;9.98;89.49
40059;SHT31;25763;49.972;8.568;2023-11-21T07:22:45;10.00;89.40
40059;SHT31;25763;49.972;8.568;2023-11-21T07:25:10;9.86;89.26
40059;SHT31;25763;49.972;8.568;2023-11-21T07:27:36;9.95;89.50
40059;SHT31;25763;49.972;8.568;2023-11-21T07:30:02;9.91;89.45
40059;SHT31;25763;49.972;8.568;2023-11-21T07:32:32;9.82;89.45
40059;SHT31;25763;49.972;8.568;2023-11-21T07:34:59;9.86;89.41
40059;SHT31;25763;49.972;8.568;2023-11-21T07:37:26;9.72;89.33
40059;SHT31;25763;49.972;8.568;2023-11-21T07:39:54;9.75;89.26
40059;SHT31;25763;49.972;8.568;2023-11-21T07:42:24;9.61;89.10
40059;SHT31;25763;49.972;8.568;2023-11-21T07:44:51;9.50;89.22
40059;SHT31;25763;49.972;8.568;2023-11-21T07:47:17;9.67;89.29
40059;SHT31;25763;49.972;8.568;2023-11-21T07:49:42;9.71;89.30
40059;SHT31;25763;49.972;8.568;2023-11-21T07:52:09;9.77;89.16
40059;SHT31;25763;49.972;8.568;2023-11-21T07:54:35;9.88;89.23
40059;SHT31;25763;49.972;8.568;2023-11-21T07:57:01;9.86;88.99
40059;SHT31;25763;49.972;8.568;2023-11-21T07:59:27;9.96;88.90
40059;SHT31;25763;49.972;8.568;2023-11-21T08:01:52;9.83;88.75
40059;SHT31;25763;49.972;8.568;2023-11-21T08:04:17;9.92;88.83
40059;SHT31;25763;49.972;8.568;2023-11-21T08:06:43;9.99;88.80
40059;SHT31;25763;49.972;8.568;2023-11-21T08:09:09;9.89;88.68
40059;SHT31;25763;49.972;8.568;2023-11-21T08:11:34;9.96;88.81
40059;SHT31;25763;49.972;8.568;2023-11-21T08:13:59;10.08;88.80
40059;SHT31;25763;49.972;8.568;2023-11-21T08:16:25;10.24;88.68
40059;SHT31;25763;49.972;8.568;2023-11-21T08:18:50;10.28;88.43
40059;SHT31;25763;49.972;8.568;2023-11-21T08:21:16;10.41;88.33
40059;SHT31;25763;49.972;8.568;2023-11-21T08:23:41;10.49;88.14
40059;SHT31;25763;49.972;8.568;2023-11-21T08:26:07;10.46;87.84
40059;SHT31;25763;49.972;8.568;2023-11-21T08:28:34;10.09;87.50
40059;SHT31;25763;49.972;8.568;2023-11-21T08:31:00;10.20;87.68
40059;SHT31;25763;49.972;8.568;2023-11-21T08:33:26;10.33;87.67
40059;SHT31;25763;49.972;8.568;2023-11-21T08:35:51;10.33;87.55
40059;SHT31;25763;49.972;8.568;2023-11-21T08:38:17;10.31;87.39
40059;SHT31;25763;49.972;8.568;2023-11-21T08:40:42;10.40;87.30
40059;SHT31;25763;49.972;8.568;2023-11-21T08:43:08;10.52;87.36
40059;SHT31;25763;49.972;8.568;2023-11-21T08:45:34;10.68;87.32
40059;SHT31;25763;49.972;8.568;2023-11-21T08:48:00;10.68;87.13
40059;SHT31;25763;49.972;8.568;2023-11-21T08:50:25;10.72;86.97
40059;SHT31;25763;49.972;8.568;2023-11-21T08:52:51;10.75;86.69
40059;SHT31;25763;49.972;8.568;2023-11-21T08:55:16;10.75;86.51
40059;SHT31;25763;49.972;8.568;2023-11-21T08:57:44;10.65;86.19
40059;SHT31;25763;49.972;8.568;2023-11-21T09:00:10;10.65;85.97
40059;SHT31;25763;49.972;8.568;2023-11-21T09:02:43;10.59;85.84
40059;SHT31;25763;49.972;8.568;2023-11-21T09:05:09;10.64;85.76
40059;SHT31;25763;49.972;8.568;2023-11-21T09:07:39;10.71;85.88
40059;SHT31;25763;49.972;8.568;2023-11-21T09:10:05;10.59;85.50
40059;SHT31;25763;49.972;8.568;2023-11-21T09:12:36;10.52;85.46
40059;SHT31;25763;49.972;8.568;2023-11-21T09:15:04;10.16;85.64
40059;SHT31;25763;49.972;8.568;2023-11-21T09:17:30;10.13;86.14
40059;SHT31;25763;49.972;8.568;2023-11-21T09:19:55;10.10;85.93
40059;SHT31;25763;49.972;8.568;2023-11-21T09:22:22;10.05;85.99
40059;SHT31;25763;49.972;8.568;2023-11-21T09:24:50;9.89;85.99
40059;SHT31;25763;49.972;8.568;2023-11-21T09:27:15;10.14;86.13
40059;SHT31;25763;49.972;8.568;2023-11-21T09:29:42;10.16;85.95
40059;SHT31;25763;49.972;8.568;2023-11-21T09:32:07;10.35;85.98
40059;SHT31;25763;49.972;8.568;2023-11-21T09:34:34;10.30;85.75
40059;SHT31;25763;49.972;8.568;2023-11-21T09:37:03;10.27;85.22
40059;SHT31;25763;49.972;8.568;2023-11-21T09:39:31;10.13;85.43
40059;SHT31;25763;49.972;8.568;2023-11-21T09:42:14;10.26;85.44
40059;SHT31;25763;49.972;8.568;2023-11-21T09:45:03;10.40;85.60
40059;SHT31;25763;49.972;8.568;2023-11-21T09:47:32;10.24;85.12
40059;SHT31;25763;49.972;8.568;2023-11-21T09:50:01;10.35;85.18
40059;SHT31;25763;49.972;8.568;2023-11-21T09:52:27;10.31;85.08
40059;SHT31;25763;49.972;8.568;2023-11-21T09:54:55;10.48;84.93
40059;SHT31;25763;49.972;8.568;2023-11-21T09:57:24;10.54;84.64
40059;SHT31;25763;49.972;8.568;2023-11-21T09:59:54;10.73;84.72
40059;SHT31;25763;49.972;8.568;2023-11-21T10:02:28;10.61;84.18
40059;SHT31;25763;49.972;8.568;2023-11-21T10:04:56;10.72;84.08
40059;SHT31;25763;49.972;8.568;2023-11-21T10:07:22;10.86;84.05
40059;SHT31;25763;49.972;8.568;2023-11-21T10:09:48;10.61;83.48
40059;SHT31;25763;49.972;8.568;2023-11-21T10:12:15;10.80;83.39
40059;SHT31;25763;49.972;8.568;2023-11-21T10:14:41;10.97;83.70
40059;SHT31;25763;49.972;8.568;2023-11-21T10:17:10;11.08;83.38
40059;SHT31;25763;49.972;8.568;2023-11-21T10:19:38;10.82;82.11
40059;SHT31;25763;49.972;8.568;2023-11-21T10:22:04;10.67;82.29
40059;SHT31;25763;49.972;8.568;2023-11-21T10:24:29;10.94;82.98
40059;SHT31;25763;49.972;8.568;2023-11-21T10:26:54;11.20;83.16
40059;SHT31;25763;49.972;8.568;2023-11-21T10:29:20;11.18;82.38
40059;SHT31;25763;49.972;8.568;2023-11-21T10:31:49;11.15;81.90
40059;SHT31;25763;49.972;8.568;2023-11-21T10:34:16;11.01;81.67
40059;SHT31;25763;49.972;8.568;2023-11-21T10:36:42;10.99;82.03
40059;SHT31;25763;49.972;8.568;2023-11-21T10:39:07;10.79;81.92
40059;SHT31;25763;49.972;8.568;2023-11-21T10:41:34;10.90;82.39
40059;SHT31;25763;49.972;8.568;2023-11-21T10:44:01;10.83;82.07
40059;SHT31;25763;49.972;8.568;2023-11-21T10:46:29;10.87;82.36
40059;SHT31;25763;49.972;8.568;2023-11-21T10:48:55;10.62;82.37
40059;SHT31;25763;49.972;8.568;2023-11-21T10:51:22;10.68;82.67
40059;SHT31;25763;49.972;8.568;2023-11-21T10:53:51;10.65;82.57
40059;SHT31;25763;49.972;8.568;2023-11-21T10:56:18;11.10;83.03
40059;SHT31;25763;49.972;8.568;2023-11-21T10:58:51;11.39;82.56
40059;SHT31;25763;49.972;8.568;2023-11-21T11:01:17;11.34;80.60
40059;SHT31;25763;49.972;8.568;2023-11-21T11:03:44;11.71;81.29
40059;SHT31;25763;49.972;8.568;2023-11-21T11:06:09;11.74;78.97
40059;SHT31;25763;49.972;8.568;2023-11-21T11:08:40;11.88;78.91
40059;SHT31;25763;49.972;8.568;2023-11-21T11:11:06;12.14;79.28
40059;SHT31;25763;49.972;8.568;2023-11-21T11:13:32;12.35;78.81
40059;SHT31;25763;49.972;8.568;2023-11-21T11:15:59;11.88;75.68
40059;SHT31;25763;49.972;8.568;2023-11-21T11:18:25;11.79;76.07
40059;SHT31;25763;49.972;8.568;2023-11-21T11:20:51;11.97;76.92
40059;SHT31;25763;49.972;8.568;2023-11-21T11:23:32;12.11;75.79
40059;SHT31;25763;49.972;8.568;2023-11-21T11:32:12;12.59;74.14
40059;SHT31;25763;49.972;8.568;2023-11-21T11:34:53;12.64;71.96
40059;SHT31;25763;49.972;8.568;2023-11-21T11:37:22;12.43;72.50
40059;SHT31;25763;49.972;8.568;2023-11-21T11:39:49;12.18;72.30
40059;SHT31;25763;49.972;8.568;2023-11-21T11:42:17;12.26;72.96
40059;SHT31;25763;49.972;8.568;2023-11-21T11:47:21;12.55;71.79
40059;SHT31;25763;49.972;8.568;2023-11-21T11:50:07;12.45;72.04
40059;SHT31;25763;49.972;8.568;2023-11-21T11:52:43;12.42;71.88
40059;SHT31;25763;49.972;8.568;2023-11-21T11:55:11;12.38;71.52
40059;SHT31;25763;49.972;8.568;2023-11-21T11:57:39;12.61;72.96
40059;SHT31;25763;49.972;8.568;2023-11-21T12:00:17;12.67;72.48
40059;SHT31;25763;49.972;8.568;2023-11-21T12:02:49;12.63;70.80
40059;SHT31;25763;49.972;8.568;2023-11-21T12:05:19;12.42;69.98
40059;SHT31;25763;49.972;8.568;2023-11-21T12:08:05;12.55;71.55
40059;SHT31;25763;49.972;8.568;2023-11-21T12:10:32;12.56;71.99
40059;SHT31;25763;49.972;8.568;2023-11-21T12:13:00;12.32;70.82
40059;SHT31;25763;49.972;8.568;2023-11-21T12:15:26;12.12;71.02
40059;SHT31;25763;49.972;8.568;2023-11-21T12:17:54;12.09;70.99
40059;SHT31;25763;49.972;8.568;2023-11-21T12:20:24;12.06;71.10
40059;SHT31;25763;49.972;8.568;2023-11-21T12:22:54;12.22;72.36
40059;SHT31;25763;49.972;8.568;2023-11-21T12:25:27;12.29;72.10
40059;SHT31;25763;49.972;8.568;2023-11-21T12:27:55;12.21;71.89
40059;SHT31;25763;49.972;8.568;2023-11-21T12:30:22;12.15;72.11
40059;SHT31;25763;49.972;8.568;2023-11-21T12:32:50;12.22;72.90
40059;SHT31;25763;49.972;8.568;2023-11-21T12:35:17;12.25;72.63
40059;SHT31;25763;49.972;8.568;2023-11-21T12:37:45;12.30;72.68
40059;SHT31;25763;49.972;8.568;2023-11-21T12:40:11;12.18;72.86
40059;SHT31;25763;49.972;8.568;2023-11-21T12:42:39;12.22;73.27
40059;SHT31;25763;49.972;8.568;2023-11-21T12:47:44;12.17;73.69
40059;SHT31;25763;49.972;8.568;2023-11-21T12:50:19;12.21;74.08
40059;SHT31;25763;49.972;8.568;2023-11-21T12:52:47;12.08;74.04
40059;SHT31;25763;49.972;8.568;2023-11-21T12:55:20;12.08;74.52
40059;SHT31;25763;49.972;8.568;2023-11-21T12:57:51;12.12;74.27
40059;SHT31;25763;49.972;8.568;2023-11-21T13:00:18;12.01;73.94
40059;SHT31;25763;49.972;8.568;2023-11-21T13:02:54;12.24;74.74
40059;SHT31;25763;49.972;8.568;2023-11-21T13:05:39;12.22;73.71
40059;SHT31;25763;49.972;8.568;2023-11-21T13:08:06;12.09;73.63
40059;SHT31;25763;49.972;8.568;2023-11-21T13:10:43;12.11;74.06
40059;SHT31;25763;49.972;8.568;2023-11-21T13:13:10;11.95;73.73
40059;SHT31;25763;49.972;8.568;2023-11-21T13:15:48;11.90;74.36
40059;SHT31;25763;49.972;8.568;2023-11-21T13:18:13;11.94;74.37
40059;SHT31;25763;49.972;8.568;2023-11-21T13:20:39;11.74;74.14
40059;SHT31;25763;49.972;8.568;2023-11-21T13:23:08;11.80;74.94
40059;SHT31;25763;49.972;8.568;2023-11-21T13:25:33;11.81;74.89
40059;SHT31;25763;49.972;8.568;2023-11-21T13:27:59;11.70;75.02
40059;SHT31;25763;49.972;8.568;2023-11-21T13:30:26;11.73;74.99
40059;SHT31;25763;49.972;8.568;2023-11-21T13:32:53;11.74;75.14
40059;SHT31;25763;49.972;8.568;2023-11-21T13:35:22;11.66;75.16
40059;SHT31;25763;49.972;8.568;2023-11-21T13:37:56;11.65;75.53
40059;SHT31;25763;49.972;8.568;2023-11-21T13:40:25;11.55;75.59
40059;SHT31;25763;49.972;8.568;2023-11-21T13:42:55;11.55;75.44
40059;SHT31;25763;49.972;8.568;2023-11-21T13:45:25;11.52;75.41
40059;SHT31;25763;49.972;8.568;2023-11-21T13:47:53;11.58;75.88
40059;SHT31;25763;49.972;8.568;2023-11-21T13:50:26;11.65;76.02
40059;SHT31;25763;49.972;8.568;2023-11-21T13:52:58;11.53;76.23
40059;SHT31;25763;49.972;8.568;2023-11-21T13:55:28;11.61;76.14
40059;SHT31;25763;49.972;8.568;2023-11-21T13:57:53;11.49;75.84
40059;SHT31;25763;49.972;8.568;2023-11-21T14:00:19;11.55;76.17
40059;SHT31;25763;49.972;8.568;2023-11-21T14:03:03;11.59;76.11
40059;SHT31;25763;49.972;8.568;2023-11-21T14:05:34;11.69;76.13
40059;SHT31;25763;49.972;8.568;2023-11-21T14:07:59;11.69;76.30
40059;SHT31;25763;49.972;8.568;2023-11-21T14:10:30;11.59;75.73
40059;SHT31;25763;49.972;8.568;2023-11-21T14:13:06;11.58;75.59
40059;SHT31;25763;49.972;8.568;2023-11-21T14:15:31;11.56;75.85
40059;SHT31;25763;49.972;8.568;2023-11-21T14:17:59;11.66;76.73
40059;SHT31;25763;49.972;8.568;2023-11-21T14:20:27;11.59;76.65
40059;SHT31;25763;49.972;8.568;2023-11-21T14:22:54;11.51;76.39
40059;SHT31;25763;49.972;8.568;2023-11-21T14:25:19;11.56;77.15
40059;SHT31;25763;49.972;8.568;2023-11-21T14:27:46;11.65;77.05
40059;SHT31;25763;49.972;8.568;2023-11-21T14:30:12;11.59;76.44
40059;SHT31;25763;49.972;8.568;2023-11-21T14:32:38;11.44;76.39
40059;SHT31;25763;49.972;8.568;2023-11-21T14:35:04;11.53;77.02
40059;SHT31;25763;49.972;8.568;2023-11-21T14:37:30;11.51;76.59
40059;SHT31;25763;49.972;8.568;2023-11-21T14:39:56;11.38;75.82
40059;SHT31;25763;49.972;8.568;2023-11-21T14:42:22;11.41;77.04
40059;SHT31;25763;49.972;8.568;2023-11-21T14:44:50;11.28;77.68
40059;SHT31;25763;49.972;8.568;2023-11-21T14:47:17;11.24;78.03
40059;SHT31;25763;49.972;8.568;2023-11-21T14:49:44;11.12;78.08
40059;SHT31;25763;49.972;8.568;2023-11-21T14:52:19;11.11;78.52
40059;SHT31;25763;49.972;8.568;2023-11-21T14:54:58;11.03;79.03
40059;SHT31;25763;49.972;8.568;2023-11-21T14:57:46;11.06;79.36
40059;SHT31;25763;49.972;8.568;2023-11-21T15:00:18;10.89;79.50
40059;SHT31;25763;49.972;8.568;2023-11-21T15:02:59;10.93;79.70
40059;SHT31;25763;49.972;8.568;2023-11-21T15:05:25;10.87;79.66
40059;SHT31;25763;49.972;8.568;2023-11-21T15:07:53;10.92;79.95
40059;SHT31;25763;49.972;8.568;2023-11-21T15:10:21;10.83;80.04
40059;SHT31;25763;49.972;8.568;2023-11-21T15:12:54;10.87;80.21
40059;SHT31;25763;49.972;8.568;2023-11-21T15:15:20;10.87;80.35
40059;SHT31;25763;49.972;8.568;2023-11-21T15:17:46;10.89;80.62
40059;SHT31;25763;49.972;8.568;2023-11-21T15:20:13;10.87;80.55
40059;SHT31;25763;49.972;8.568;2023-11-21T15:22:44;10.93;80.47
40059;SHT31;25763;49.972;8.568;2023-11-21T15:25:10;10.89;80.53
40059;SHT31;25763;49.972;8.568;2023-11-21T15:27:36;10.77;80.60
40059;SHT31;25763;49.972;8.568;2023-11-21T15:30:05;10.83;80.82
40059;SHT31;25763;49.972;8.568;2023-11-21T15:32:30;10.90;80.88
40059;SHT31;25763;49.972;8.568;2023-11-21T15:34:55;10.90;80.97
40059;SHT31;25763;49.972;8.568;2023-11-21T15:37:21;10.77;81.35
40059;SHT31;25763;49.972;8.568;2023-11-21T15:39:46;10.76;81.61
40059;SHT31;25763;49.972;8.568;2023-11-21T15:42:12;10.61;82.13
40059;SHT31;25763;49.972;8.568;2023-11-21T15:44:37;10.55;82.72
40059;SHT31;25763;49.972;8.568;2023-11-21T15:47:04;10.54;83.00
40059;SHT31;25763;49.972;8.568;2023-11-21T15:49:31;10.45;83.56